sensor_id;sensor_type;location;lat;lon;timestamp;pressure;altitude;pressure_sealevel;temperature;humidity
15634;BME280;14654;48.898;8.308;2022-09-09T00:02:20;99860.94;;;16.85;100.00
15634;BME280;14654;48.898;8.308;2022-09-09T00:07:43;99864.28;;;16.89;100.00
15634;BME280;14654;48.898;8.308;2022-09-09T00:15:12;99859.91;;;16.89;100.00
15634;BME280;14654;48.898;8.308;2022-09-09T00:17:49;99865.94;;;16.91;100.00
15634;BME280;14654;48.898;8.308;2022-09-09T00:20:39;99848.41;;;16.94;100.00
15634;BME280;14654;48.898;8.308;2022-09-09T00:23:25;99862.41;;;16.92;100.00
15634;BME280;14654;48.898;8.308;2022-09-09T00:28:41;99854.44;;;16.96;100.00
15634;BME280;14654;48.898;8.308;2022-09-09T00:31:13;99857.91;;;16.96;100.00
15634;BME280;14654;48.898;8.308;2022-09-09T00:33:40;99850.00;;;16.98;100.00
15634;BME280;14654;48.898;8.308;2022-09-09T00:36:13;99844.78;;;16.98;100.00
15634;BME280;14654;48.898;8.308;2022-09-09T00:38:45;99850.06;;;16.96;100.00
15634;BME280;14654;48.898;8.308;2022-09-09T00:43:39;99857.03;;;16.96;100.00
15634;BME280;14654;48.898;8.308;2022-09-09T00:49:09;99861.38;;;16.97;100.00
15634;BME280;14654;48.898;8.308;2022-09-09T00:57:30;99869.38;;;16.92;100.00
15634;BME280;14654;48.898;8.308;2022-09-09T01:05:05;99889.09;;;17.01;100.00
15634;BME280;14654;48.898;8.308;2022-09-09T01:07:36;99900.22;;;17.06;100.00
15634;BME280;14654;48.898;8.308;2022-09-09T01:10:07;99907.72;;;17.14;100.00
15634;BME280;14654;48.898;8.308;2022-09-09T01:12:41;99924.84;;;17.21;100.00
15634;BME280;14654;48.898;8.308;2022-09-09T01:15:18;99913.22;;;17.28;100.00
15634;BME280;14654;48.898;8.308;2022-09-09T01:17:51;99923.59;;;17.30;100.00
15634;BME280;14654;48.898;8.308;2022-09-09T01:20:24;99934.19;;;17.27;100.00
15634;BME280;14654;48.898;8.308;2022-09-09T01:23:11;99926.41;;;17.25;100.00
15634;BME280;14654;48.898;8.308;2022-09-09T01:28:13;99919.34;;;17.06;100.00
15634;BME280;14654;48.898;8.308;2022-09-09T01:30:41;99914.22;;;17.03;100.00
15634;BME280;14654;48.898;8.308;2022-09-09T01:33:13;99919.78;;;16.96;100.00
15634;BME280;14654;48.898;8.308;2022-09-09T01:35:52;99916.53;;;16.89;100.00
15634;BME280;14654;48.898;8.308;2022-09-09T01:38:20;99915.03;;;16.83;100.00
15634;BME280;14654;48.898;8.308;2022-09-09T01:40:46;99909.28;;;16.75;100.00
15634;BME280;14654;48.898;8.308;2022-09-09T01:43:12;99908.59;;;16.70;100.00
15634;BME280;14654;48.898;8.308;2022-09-09T01:45:39;99894.94;;;16.63;100.00
15634;BME280;14654;48.898;8.308;2022-09-09T01:48:06;99889.19;;;16.55;100.00
15634;BME280;14654;48.898;8.308;2022-09-09T01:50:32;99883.38;;;16.48;100.00
15634;BME280;14654;48.898;8.308;2022-09-09T01:52:58;99887.00;;;16.44;100.00
15634;BME280;14654;48.898;8.308;2022-09-09T01:55:38;99878.50;;;16.39;100.00
15634;BME280;14654;48.898;8.308;2022-09-09T02:00:35;99872.97;;;16.24;100.00
15634;BME280;14654;48.898;8.308;2022-09-09T02:03:24;99857.72;;;16.13;100.00
15634;BME280;14654;48.898;8.308;2022-09-09T02:08:33;99860.63;;;16.06;100.00
15634;BME280;14654;48.898;8.308;2022-09-09T02:11:06;99853.84;;;16.02;100.00
15634;BME280;14654;48.898;8.308;2022-09-09T02:13:35;99864.31;;;16.00;100.00
15634;BME280;14654;48.898;8.308;2022-09-09T02:16:07;99853.97;;;15.98;100.00
15634;BME280;14654;48.898;8.308;2022-09-09T02:18:44;99855.78;;;15.96;100.00
15634;BME280;14654;48.898;8.308;2022-09-09T02:21:12;99849.75;;;15.94;100.00
15634;BME280;14654;48.898;8.308;2022-09-09T02:23:40;99852.44;;;15.93;100.00
15634;BME280;14654;48.898;8.308;2022-09-09T02:26:08;99845.50;;;15.92;100.00
15634;BME280;14654;48.898;8.308;2022-09-09T02:28:37;99836.81;;;15.91;100.00
15634;BME280;14654;48.898;8.308;2022-09-09T02:31:04;99845.63;;;15.89;100.00
15634;BME280;14654;48.898;8.308;2022-09-09T02:33:34;99836.16;;;15.86;100.00
15634;BME280;14654;48.898;8.308;2022-09-09T02:36:01;99834.53;;;15.82;100.00
15634;BME280;14654;48.898;8.308;2022-09-09T02:38:32;99832.09;;;15.77;100.00
15634;BME280;14654;48.898;8.308;2022-09-09T02:41:00;99845.25;;;15.74;100.00
15634;BME280;14654;48.898;8.308;2022-09-09T02:43:31;99837.63;;;15.69;100.00
15634;BME280;14654;48.898;8.308;2022-09-09T02:46:00;99840.41;;;15.65;100.00
15634;BME280;14654;48.898;8.308;2022-09-09T02:48:44;99841.41;;;15.61;100.00
15634;BME280;14654;48.898;8.308;2022-09-09T02:51:24;99838.97;;;15.56;100.00
15634;BME280;14654;48.898;8.308;2022-09-09T02:54:21;99838.22;;;15.52;100.00
15634;BME280;14654;48.898;8.308;2022-09-09T02:56:53;99832.22;;;15.50;100.00
15634;BME280;14654;48.898;8.308;2022-09-09T02:59:21;99840.81;;;15.52;100.00
15634;BME280;14654;48.898;8.308;2022-09-09T03:01:47;99845.94;;;15.55;100.00
15634;BME280;14654;48.898;8.308;2022-09-09T03:04:13;99844.13;;;15.58;100.00
15634;BME280;14654;48.898;8.308;2022-09-09T03:06:38;99844.03;;;15.61;100.00
15634;BME280;14654;48.898;8.308;2022-09-09T03:09:04;99846.56;;;15.62;100.00
15634;BME280;14654;48.898;8.308;2022-09-09T03:11:29;99842.22;;;15.63;100.00
15634;BME280;14654;48.898;8.308;2022-09-09T03:13:55;99844.75;;;15.64;100.00
15634;BME280;14654;48.898;8.308;2022-09-09T03:16:24;99844.66;;;15.67;100.00
15634;BME280;14654;48.898;8.308;2022-09-09T03:18:50;99855.97;;;15.66;100.00
15634;BME280;14654;48.898;8.308;2022-09-09T03:21:15;99846.44;;;15.65;100.00
15634;BME280;14654;48.898;8.308;2022-09-09T03:23:41;99844.84;;;15.61;100.00
15634;BME280;14654;48.898;8.308;2022-09-09T03:26:07;99842.34;;;15.58;100.00
15634;BME280;14654;48.898;8.308;2022-09-09T03:28:32;99854.66;;;15.54;100.00
15634;BME280;14654;48.898;8.308;2022-09-09T03:31:03;99852.97;;;15.53;100.00
15634;BME280;14654;48.898;8.308;2022-09-09T03:33:29;99842.72;;;15.49;100.00
15634;BME280;14654;48.898;8.308;2022-09-09T03:35:55;99848.81;;;15.48;100.00
15634;BME280;14654;48.898;8.308;2022-09-09T03:38:22;99858.47;;;15.46;100.00
15634;BME280;14654;48.898;8.308;2022-09-09T03:40:52;99853.38;;;15.43;100.00
15634;BME280;14654;48.898;8.308;2022-09-09T03:43:25;99847.41;;;15.39;100.00
15634;BME280;14654;48.898;8.308;2022-09-09T03:45:51;99851.81;;;15.37;100.00
15634;BME280;14654;48.898;8.308;2022-09-09T03:48:17;99850.06;;;15.37;100.00
15634;BME280;14654;48.898;8.308;2022-09-09T03:50:49;99850.81;;;15.41;100.00
15634;BME280;14654;48.898;8.308;2022-09-09T03:53:17;99844.59;;;15.45;100.00
15634;BME280;14654;48.898;8.308;2022-09-09T03:55:46;99836.66;;;15.48;100.00
15634;BME280;14654;48.898;8.308;2022-09-09T03:58:13;99846.81;;;15.56;100.00
15634;BME280;14654;48.898;8.308;2022-09-09T04:00:39;99849.16;;;15.62;100.00
15634;BME280;14654;48.898;8.308;2022-09-09T04:03:10;99850.69;;;15.68;100.00
15634;BME280;14654;48.898;8.308;2022-09-09T04:05:38;99851.31;;;15.75;100.00
15634;BME280;14654;48.898;8.308;2022-09-09T04:08:06;99851.16;;;15.79;100.00
15634;BME280;14654;48.898;8.308;2022-09-09T04:10:31;99851.81;;;15.84;100.00
15634;BME280;14654;48.898;8.308;2022-09-09T04:12:56;99864.72;;;15.89;100.00
15634;BME280;14654;48.898;8.308;2022-09-09T04:15:21;99861.28;;;15.89;100.00
15634;BME280;14654;48.898;8.308;2022-09-09T04:17:47;99862.06;;;15.91;100.00
15634;BME280;14654;48.898;8.308;2022-09-09T04:20:12;99863.72;;;15.93;100.00
15634;BME280;14654;48.898;8.308;2022-09-09T04:22:37;99860.13;;;15.96;100.00
15634;BME280;14654;48.898;8.308;2022-09-09T04:25:05;99862.69;;;15.97;100.00
15634;BME280;14654;48.898;8.308;2022-09-09T04:27:31;99866.09;;;15.99;100.00
15634;BME280;14654;48.898;8.308;2022-09-09T04:29:56;99862.50;;;16.02;100.00
15634;BME280;14654;48.898;8.308;2022-09-09T04:32:22;99866.75;;;16.05;100.00
15634;BME280;14654;48.898;8.308;2022-09-09T04:34:48;99865.81;;;16.07;100.00
15634;BME280;14654;48.898;8.308;2022-09-09T04:37:14;99871.81;;;16.09;100.00
15634;BME280;14654;48.898;8.308;2022-09-09T04:39:39;99869.13;;;16.11;100.00
15634;BME280;14654;48.898;8.308;2022-09-09T04:42:04;99875.19;;;16.11;100.00
15634;BME280;14654;48.898;8.308;2022-09-09T04:44:30;99884.72;;;16.12;100.00
15634;BME280;14654;48.898;8.308;2022-09-09T04:46:55;99880.31;;;16.14;100.00
15634;BME280;14654;48.898;8.308;2022-09-09T04:49:21;99890.63;;;16.18;100.00
15634;BME280;14654;48.898;8.308;2022-09-09T04:51:48;99893.13;;;16.21;100.00
15634;BME280;14654;48.898;8.308;2022-09-09T04:54:14;99897.44;;;16.22;100.00
15634;BME280;14654;48.898;8.308;2022-09-09T04:56:39;99896.53;;;16.23;100.00
15634;BME280;14654;48.898;8.308;2022-09-09T04:59:06;99900.88;;;16.22;100.00
15634;BME280;14654;48.898;8.308;2022-09-09T05:01:32;99893.06;;;16.22;100.00
15634;BME280;14654;48.898;8.308;2022-09-09T05:03:57;99893.94;;;16.23;100.00
15634;BME280;14654;48.898;8.308;2022-09-09T05:06:23;99898.25;;;16.24;100.00
15634;BME280;14654;48.898;8.308;2022-09-09T05:08:48;99909.41;;;16.27;100.00
15634;BME280;14654;48.898;8.308;2022-09-09T05:13:44;99905.69;;;16.33;100.00
15634;BME280;14654;48.898;8.308;2022-09-09T05:16:10;99903.88;;;16.35;100.00
15634;BME280;14654;48.898;8.308;2022-09-09T05:18:39;99909.81;;;16.39;100.00
15634;BME280;14654;48.898;8.308;2022-09-09T05:21:04;99904.56;;;16.40;100.00
15634;BME280;14654;48.898;8.308;2022-09-09T05:23:31;99903.59;;;16.43;100.00
15634;BME280;14654;48.898;8.308;2022-09-09T05:25:57;99908.69;;;16.46;100.00
15634;BME280;14654;48.898;8.308;2022-09-09T05:28:24;99909.50;;;16.48;100.00
15634;BME280;14654;48.898;8.308;2022-09-09T05:31:01;99907.59;;;16.52;100.00
15634;BME280;14654;48.898;8.308;2022-09-09T05:33:30;99909.31;;;16.53;100.00
15634;BME280;14654;48.898;8.308;2022-09-09T05:36:07;99908.50;;;16.51;100.00
15634;BME280;14654;48.898;8.308;2022-09-09T05:38:33;99919.06;;;16.48;100.00
15634;BME280;14654;48.898;8.308;2022-09-09T05:40:59;99913.78;;;16.49;100.00
15634;BME280;14654;48.898;8.308;2022-09-09T05:43:26;99917.84;;;16.56;100.00
15634;BME280;14654;48.898;8.308;2022-09-09T05:46:03;99924.16;;;16.73;100.00
15634;BME280;14654;48.898;8.308;2022-09-09T05:48:34;99909.88;;;17.04;100.00
15634;BME280;14654;48.898;8.308;2022-09-09T05:51:01;99918.41;;;17.49;100.00
15634;BME280;14654;48.898;8.308;2022-09-09T05:53:28;99920.88;;;17.73;100.00
15634;BME280;14654;48.898;8.308;2022-09-09T05:56:05;99927.69;;;17.77;100.00
15634;BME280;14654;48.898;8.308;2022-09-09T05:58:34;99921.00;;;17.70;100.00
15634;BME280;14654;48.898;8.308;2022-09-09T06:01:06;99924.81;;;17.62;100.00
15634;BME280;14654;48.898;8.308;2022-09-09T06:03:34;99922.41;;;17.58;100.00
15634;BME280;14654;48.898;8.308;2022-09-09T06:06:02;99920.78;;;17.55;100.00
15634;BME280;14654;48.898;8.308;2022-09-09T06:08:31;99919.84;;;17.56;100.00
15634;BME280;14654;48.898;8.308;2022-09-09T06:11:10;99917.94;;;17.60;100.00
15634;BME280;14654;48.898;8.308;2022-09-09T06:13:37;99920.50;;;17.61;100.00
15634;BME280;14654;48.898;8.308;2022-09-09T06:16:04;99926.59;;;17.62;100.00
15634;BME280;14654;48.898;8.308;2022-09-09T06:18:29;99920.44;;;17.63;100.00
15634;BME280;14654;48.898;8.308;2022-09-09T06:21:02;99916.81;;;17.65;100.00
15634;BME280;14654;48.898;8.308;2022-09-09T06:23:29;99915.13;;;17.64;100.00
15634;BME280;14654;48.898;8.308;2022-09-09T06:28:27;99918.13;;;17.76;100.00
15634;BME280;14654;48.898;8.308;2022-09-09T06:31:03;99908.06;;;17.86;100.00
15634;BME280;14654;48.898;8.308;2022-09-09T06:33:33;99908.44;;;17.97;100.00
15634;BME280;14654;48.898;8.308;2022-09-09T06:36:00;99916.69;;;18.08;100.00
15634;BME280;14654;48.898;8.308;2022-09-09T06:38:26;99908.34;;;18.19;100.00
15634;BME280;14654;48.898;8.308;2022-09-09T06:40:58;99912.06;;;18.33;100.00
15634;BME280;14654;48.898;8.308;2022-09-09T06:43:27;99914.94;;;18.46;100.00
15634;BME280;14654;48.898;8.308;2022-09-09T06:46:22;99908.03;;;18.62;100.00
15634;BME280;14654;48.898;8.308;2022-09-09T06:48:48;99918.81;;;18.93;100.00
15634;BME280;14654;48.898;8.308;2022-09-09T06:53:40;99909.72;;;19.69;100.00
15634;BME280;14654;48.898;8.308;2022-09-09T06:56:32;99913.63;;;19.77;100.00
15634;BME280;14654;48.898;8.308;2022-09-09T06:58:59;99908.63;;;19.73;100.00
15634;BME280;14654;48.898;8.308;2022-09-09T07:01:28;99923.84;;;19.66;100.00
15634;BME280;14654;48.898;8.308;2022-09-09T07:03:56;99922.25;;;19.63;100.00
15634;BME280;14654;48.898;8.308;2022-09-09T07:06:25;99918.75;;;19.63;100.00
15634;BME280;14654;48.898;8.308;2022-09-09T07:08:58;99922.06;;;19.67;100.00
15634;BME280;14654;48.898;8.308;2022-09-09T07:11:32;99924.88;;;19.63;100.00
15634;BME280;14654;48.898;8.308;2022-09-09T07:13:59;99922.81;;;19.53;100.00
15634;BME280;14654;48.898;8.308;2022-09-09T07:16:26;99923.59;;;19.37;100.00
15634;BME280;14654;48.898;8.308;2022-09-09T07:18:53;99931.41;;;19.21;100.00
15634;BME280;14654;48.898;8.308;2022-09-09T07:21:23;99928.31;;;19.13;100.00
15634;BME280;14654;48.898;8.308;2022-09-09T07:23:49;99931.09;;;19.45;100.00
15634;BME280;14654;48.898;8.308;2022-09-09T07:26:17;99921.69;;;20.08;100.00
15634;BME280;14654;48.898;8.308;2022-09-09T07:28:44;99921.81;;;20.53;100.00
15634;BME280;14654;48.898;8.308;2022-09-09T07:31:20;99921.63;;;20.72;100.00
15634;BME280;14654;48.898;8.308;2022-09-09T07:33:46;99927.81;;;20.87;100.00
15634;BME280;14654;48.898;8.308;2022-09-09T07:38:42;99926.03;;;21.18;99.68
15634;BME280;14654;48.898;8.308;2022-09-09T07:41:11;99926.06;;;21.47;98.79
15634;BME280;14654;48.898;8.308;2022-09-09T07:43:42;99926.09;;;21.76;97.13
15634;BME280;14654;48.898;8.308;2022-09-09T07:46:09;99936.25;;;21.97;96.01
15634;BME280;14654;48.898;8.308;2022-09-09T07:48:34;99932.47;;;22.01;96.19
15634;BME280;14654;48.898;8.308;2022-09-09T07:51:09;99934.44;;;21.97;96.35
15634;BME280;14654;48.898;8.308;2022-09-09T07:53:37;99926.66;;;21.96;95.49
15634;BME280;14654;48.898;8.308;2022-09-09T07:56:08;99929.94;;;21.99;95.99
15634;BME280;14654;48.898;8.308;2022-09-09T07:58:37;99933.31;;;22.01;96.25
15634;BME280;14654;48.898;8.308;2022-09-09T08:01:15;99932.84;;;22.09;95.29
15634;BME280;14654;48.898;8.308;2022-09-09T08:03:43;99932.84;;;22.09;95.06
15634;BME280;14654;48.898;8.308;2022-09-09T08:06:10;99939.69;;;22.26;94.80
15634;BME280;14654;48.898;8.308;2022-09-09T08:08:36;99931.72;;;22.41;91.14
15634;BME280;14654;48.898;8.308;2022-09-09T08:11:15;99934.06;;;22.18;91.50
15634;BME280;14654;48.898;8.308;2022-09-09T08:13:41;99945.66;;;21.86;92.40
15634;BME280;14654;48.898;8.308;2022-09-09T08:16:13;99951.81;;;21.56;93.14
15634;BME280;14654;48.898;8.308;2022-09-09T08:18:39;99964.59;;;21.34;94.86
15634;BME280;14654;48.898;8.308;2022-09-09T08:21:10;99979.94;;;21.11;96.14
15634;BME280;14654;48.898;8.308;2022-09-09T08:23:41;99976.84;;;20.88;98.25
15634;BME280;14654;48.898;8.308;2022-09-09T08:26:12;99963.94;;;20.67;99.99
15634;BME280;14654;48.898;8.308;2022-09-09T08:28:39;99960.97;;;20.58;100.00
15634;BME280;14654;48.898;8.308;2022-09-09T08:31:09;99963.81;;;20.54;100.00
15634;BME280;14654;48.898;8.308;2022-09-09T08:33:35;99961.59;;;20.63;100.00
15634;BME280;14654;48.898;8.308;2022-09-09T08:36:03;99970.22;;;20.81;100.00
15634;BME280;14654;48.898;8.308;2022-09-09T08:38:28;99975.31;;;21.00;100.00
15634;BME280;14654;48.898;8.308;2022-09-09T08:40:59;99973.88;;;21.25;100.00
15634;BME280;14654;48.898;8.308;2022-09-09T08:43:27;99974.22;;;21.49;100.00
15634;BME280;14654;48.898;8.308;2022-09-09T08:46:16;99976.03;;;21.63;100.00
15634;BME280;14654;48.898;8.308;2022-09-09T08:48:56;99973.97;;;21.68;100.00
15634;BME280;14654;48.898;8.308;2022-09-09T08:51:27;99973.13;;;21.68;100.00
15634;BME280;14654;48.898;8.308;2022-09-09T08:53:58;99980.00;;;21.70;100.00
15634;BME280;14654;48.898;8.308;2022-09-09T08:56:27;99981.59;;;21.73;100.00
15634;BME280;14654;48.898;8.308;2022-09-09T08:58:54;99994.50;;;21.77;100.00
15634;BME280;14654;48.898;8.308;2022-09-09T09:04:28;99980.38;;;22.07;100.00
15634;BME280;14654;48.898;8.308;2022-09-09T09:12:22;99970.66;;;22.22;100.00
15634;BME280;14654;48.898;8.308;2022-09-09T09:14:49;99971.56;;;22.36;100.00
15634;BME280;14654;48.898;8.308;2022-09-09T09:19:43;99960.78;;;22.68;99.81
15634;BME280;14654;48.898;8.308;2022-09-09T09:22:28;99960.28;;;22.76;99.55
15634;BME280;14654;48.898;8.308;2022-09-09T09:27:34;99963.50;;;22.94;99.69
15634;BME280;14654;48.898;8.308;2022-09-09T09:30:05;99966.56;;;23.01;99.27
15634;BME280;14654;48.898;8.308;2022-09-09T09:32:40;99971.34;;;23.08;98.52
15634;BME280;14654;48.898;8.308;2022-09-09T09:35:12;99961.13;;;23.17;96.99
15634;BME280;14654;48.898;8.308;2022-09-09T09:37:40;99964.84;;;23.14;96.53
15634;BME280;14654;48.898;8.308;2022-09-09T09:40:17;99970.13;;;23.14;96.40
15634;BME280;14654;48.898;8.308;2022-09-09T09:43:01;99967.25;;;23.04;96.29
15634;BME280;14654;48.898;8.308;2022-09-09T09:45:43;99967.94;;;22.93;96.64
15634;BME280;14654;48.898;8.308;2022-09-09T09:48:12;99974.47;;;22.88;96.33
15634;BME280;14654;48.898;8.308;2022-09-09T09:51:01;99972.22;;;22.81;95.65
15634;BME280;14654;48.898;8.308;2022-09-09T09:53:32;99968.59;;;22.69;95.75
15634;BME280;14654;48.898;8.308;2022-09-09T09:58:25;99972.03;;;22.57;93.09
15634;BME280;14654;48.898;8.308;2022-09-09T10:00:52;99966.44;;;22.62;93.50
15634;BME280;14654;48.898;8.308;2022-09-09T10:03:28;99969.56;;;22.54;93.32
15634;BME280;14654;48.898;8.308;2022-09-09T10:05:54;99965.16;;;22.40;93.86
15634;BME280;14654;48.898;8.308;2022-09-09T10:08:22;99963.31;;;22.42;93.21
15634;BME280;14654;48.898;8.308;2022-09-09T10:13:58;99965.06;;;22.56;92.18
15634;BME280;14654;48.898;8.308;2022-09-09T10:34:19;99948.09;;;23.67;90.26
15634;BME280;14654;48.898;8.308;2022-09-09T10:36:51;99944.66;;;23.90;89.60
15634;BME280;14654;48.898;8.308;2022-09-09T10:41:57;99945.97;;;24.11;89.39
15634;BME280;14654;48.898;8.308;2022-09-09T10:47:07;99944.03;;;24.13;88.32
15634;BME280;14654;48.898;8.308;2022-09-09T10:52:13;99950.81;;;23.39;89.51
15634;BME280;14654;48.898;8.308;2022-09-09T10:57:32;99950.31;;;23.34;89.64
15634;BME280;14654;48.898;8.308;2022-09-09T11:00:04;99946.81;;;23.21;88.92
15634;BME280;14654;48.898;8.308;2022-09-09T11:02:33;99939.78;;;23.07;90.07
15634;BME280;14654;48.898;8.308;2022-09-09T11:13:19;99935.66;;;23.43;91.26
15634;BME280;14654;48.898;8.308;2022-09-09T11:15:50;99936.16;;;23.35;91.29
15634;BME280;14654;48.898;8.308;2022-09-09T11:18:21;99936.25;;;23.21;90.97
15634;BME280;14654;48.898;8.308;2022-09-09T11:20:59;99927.94;;;22.99;91.32
15634;BME280;14654;48.898;8.308;2022-09-09T11:23:39;99940.03;;;22.76;91.97
15634;BME280;14654;48.898;8.308;2022-09-09T11:26:07;99932.66;;;22.54;90.92
15634;BME280;14654;48.898;8.308;2022-09-09T11:28:53;99934.47;;;22.39;91.55
15634;BME280;14654;48.898;8.308;2022-09-09T11:36:55;99932.56;;;22.56;92.88
15634;BME280;14654;48.898;8.308;2022-09-09T11:44:38;99906.44;;;23.70;89.77
15634;BME280;14654;48.898;8.308;2022-09-09T11:47:03;99897.75;;;23.94;89.21
15634;BME280;14654;48.898;8.308;2022-09-09T11:52:21;99895.81;;;24.09;87.72
15634;BME280;14654;48.898;8.308;2022-09-09T11:54:48;99895.53;;;24.01;86.35
15634;BME280;14654;48.898;8.308;2022-09-09T11:57:30;99887.50;;;23.89;85.61
15634;BME280;14654;48.898;8.308;2022-09-09T11:59:57;99887.53;;;23.64;85.74
15634;BME280;14654;48.898;8.308;2022-09-09T12:02:28;99887.88;;;23.46;84.42
15634;BME280;14654;48.898;8.308;2022-09-09T12:05:00;99893.16;;;23.46;84.02
15634;BME280;14654;48.898;8.308;2022-09-09T12:07:40;99889.78;;;23.57;83.23
15634;BME280;14654;48.898;8.308;2022-09-09T12:12:37;99888.28;;;24.16;79.31
15634;BME280;14654;48.898;8.308;2022-09-09T12:17:49;99886.13;;;24.34;79.91
15634;BME280;14654;48.898;8.308;2022-09-09T12:20:35;99880.31;;;24.53;78.92
15634;BME280;14654;48.898;8.308;2022-09-09T12:28:27;99882.84;;;24.79;77.97
15634;BME280;14654;48.898;8.308;2022-09-09T12:31:31;99878.28;;;24.57;78.29
15634;BME280;14654;48.898;8.308;2022-09-09T12:33:51;99878.44;;;24.18;79.24
15634;BME280;14654;48.898;8.308;2022-09-09T12:36:20;99885.81;;;23.88;79.50
15634;BME280;14654;48.898;8.308;2022-09-09T12:38:46;99902.03;;;23.58;80.06
15634;BME280;14654;48.898;8.308;2022-09-09T12:41:20;99923.31;;;23.16;92.83
15634;BME280;14654;48.898;8.308;2022-09-09T12:43:46;99910.66;;;22.68;95.68
15634;BME280;14654;48.898;8.308;2022-09-09T12:46:22;99908.13;;;22.39;96.54
15634;BME280;14654;48.898;8.308;2022-09-09T12:48:51;99906.16;;;22.43;99.71
15634;BME280;14654;48.898;8.308;2022-09-09T12:51:35;99902.63;;;22.57;100.00
15634;BME280;14654;48.898;8.308;2022-09-09T12:54:01;99897.25;;;22.58;100.00
15634;BME280;14654;48.898;8.308;2022-09-09T12:56:30;99898.28;;;22.56;100.00
15634;BME280;14654;48.898;8.308;2022-09-09T12:58:57;99900.19;;;22.53;100.00
15634;BME280;14654;48.898;8.308;2022-09-09T13:01:27;99894.56;;;22.45;100.00
15634;BME280;14654;48.898;8.308;2022-09-09T13:03:54;99898.69;;;22.35;100.00
15634;BME280;14654;48.898;8.308;2022-09-09T13:06:23;99897.81;;;22.21;100.00
15634;BME280;14654;48.898;8.308;2022-09-09T13:08:53;99885.53;;;22.07;100.00
15634;BME280;14654;48.898;8.308;2022-09-09T13:11:40;99877.84;;;21.90;100.00
15634;BME280;14654;48.898;8.308;2022-09-09T13:16:55;99874.00;;;21.81;100.00
15634;BME280;14654;48.898;8.308;2022-09-09T13:19:21;99863.06;;;21.87;100.00
15634;BME280;14654;48.898;8.308;2022-09-09T13:21:47;99861.44;;;21.99;100.00
15634;BME280;14654;48.898;8.308;2022-09-09T13:24:39;99849.09;;;22.14;100.00
15634;BME280;14654;48.898;8.308;2022-09-09T13:27:22;99846.78;;;22.22;100.00
15634;BME280;14654;48.898;8.308;2022-09-09T13:29:53;99845.00;;;22.23;100.00
15634;BME280;14654;48.898;8.308;2022-09-09T13:32:23;99847.91;;;22.18;100.00
15634;BME280;14654;48.898;8.308;2022-09-09T13:34:53;99847.41;;;22.13;100.00
15634;BME280;14654;48.898;8.308;2022-09-09T13:37:34;99853.03;;;22.07;100.00
15634;BME280;14654;48.898;8.308;2022-09-09T13:40:00;99843.44;;;22.06;100.00
15634;BME280;14654;48.898;8.308;2022-09-09T13:42:28;99844.16;;;22.22;100.00
15634;BME280;14654;48.898;8.308;2022-09-09T13:44:56;99843.03;;;22.39;100.00
15634;BME280;14654;48.898;8.308;2022-09-09T13:47:34;99845.25;;;22.60;100.00
15634;BME280;14654;48.898;8.308;2022-09-09T13:50:23;99836.69;;;22.57;100.00
15634;BME280;14654;48.898;8.308;2022-09-09T13:52:49;99836.78;;;22.42;97.00
15634;BME280;14654;48.898;8.308;2022-09-09T13:55:17;99830.34;;;22.32;98.25
15634;BME280;14654;48.898;8.308;2022-09-09T13:57:56;99830.84;;;22.24;96.70
15634;BME280;14654;48.898;8.308;2022-09-09T14:00:23;99818.59;;;22.10;96.60
15634;BME280;14654;48.898;8.308;2022-09-09T14:02:49;99825.50;;;21.98;92.88
15634;BME280;14654;48.898;8.308;2022-09-09T14:05:16;99821.78;;;21.88;95.67
15634;BME280;14654;48.898;8.308;2022-09-09T14:07:43;99824.59;;;21.85;94.77
15634;BME280;14654;48.898;8.308;2022-09-09T14:10:09;99837.88;;;21.83;95.48
15634;BME280;14654;48.898;8.308;2022-09-09T14:12:35;99826.78;;;21.78;91.35
15634;BME280;14654;48.898;8.308;2022-09-09T14:15:02;99831.19;;;21.63;89.84
15634;BME280;14654;48.898;8.308;2022-09-09T14:17:27;99834.09;;;21.58;91.65
15634;BME280;14654;48.898;8.308;2022-09-09T14:19:57;99834.81;;;21.62;91.39
15634;BME280;14654;48.898;8.308;2022-09-09T14:22:22;99839.59;;;21.70;88.23
15634;BME280;14654;48.898;8.308;2022-09-09T14:24:48;99834.94;;;21.88;88.31
15634;BME280;14654;48.898;8.308;2022-09-09T14:27:14;99820.88;;;22.02;86.02
15634;BME280;14654;48.898;8.308;2022-09-09T14:29:39;99823.00;;;22.10;82.91
15634;BME280;14654;48.898;8.308;2022-09-09T14:32:04;99830.72;;;22.13;83.83
15634;BME280;14654;48.898;8.308;2022-09-09T14:34:30;99832.59;;;22.11;85.13
15634;BME280;14654;48.898;8.308;2022-09-09T14:36:57;99831.97;;;22.07;83.94
15634;BME280;14654;48.898;8.308;2022-09-09T14:39:22;99838.97;;;21.93;84.02
15634;BME280;14654;48.898;8.308;2022-09-09T14:41:47;99838.25;;;21.77;84.58
15634;BME280;14654;48.898;8.308;2022-09-09T14:44:13;99843.25;;;21.67;85.32
15634;BME280;14654;48.898;8.308;2022-09-09T14:46:38;99862.91;;;21.61;85.58
15634;BME280;14654;48.898;8.308;2022-09-09T14:49:03;99869.88;;;21.62;85.25
15634;BME280;14654;48.898;8.308;2022-09-09T14:51:29;99876.19;;;21.60;85.61
15634;BME280;14654;48.898;8.308;2022-09-09T14:53:57;99868.50;;;21.41;86.60
15634;BME280;14654;48.898;8.308;2022-09-09T14:56:26;99865.50;;;21.32;87.55
15634;BME280;14654;48.898;8.308;2022-09-09T14:58:56;99859.78;;;21.26;88.48
15634;BME280;14654;48.898;8.308;2022-09-09T15:01:22;99870.09;;;21.14;89.16
15634;BME280;14654;48.898;8.308;2022-09-09T15:03:50;99880.34;;;21.05;90.57
15634;BME280;14654;48.898;8.308;2022-09-09T15:06:16;99876.75;;;21.06;91.28
15634;BME280;14654;48.898;8.308;2022-09-09T15:08:43;99893.09;;;21.11;91.90
15634;BME280;14654;48.898;8.308;2022-09-09T15:11:10;99889.56;;;21.26;92.33
15634;BME280;14654;48.898;8.308;2022-09-09T15:13:38;99888.09;;;21.51;92.27
15634;BME280;14654;48.898;8.308;2022-09-09T15:16:09;99895.91;;;21.82;92.00